Time,TemperatureF,DewpointF,PressureIn,WindDirection,WindDirectionDegrees,WindSpeedMPH,WindSpeedGustMPH,Humidity,HourlyPrecipIn,Conditions,Clouds,dailyrainin,SoftwareType,DateUTC
2013-02-22 00:00:00,21.0,14.9,29.29,SE,140,2.2,8.3,77,0.00,,,0.00,VWS V14.00,2013-02-22 05:00:00,
2013-02-22 00:05:00,21.2,15.4,29.26,ESE,103,2.7,4.9,78,0.00,,,0.00,VWS V14.00,2013-02-22 05:05:00,
2013-02-22 00:10:00,21.2,15.4,29.26,East,95,5.4,6.3,78,0.00,,,0.00,VWS V14.00,2013-02-22 05:10:00,
2013-02-22 00:15:00,21.2,15.4,29.26,SE,130,6.3,8.3,78,0.00,,,0.00,VWS V14.00,2013-02-22 05:15:00,
2013-02-22 00:20:00,21.2,15.4,29.26,East,83,3.6,8.3,78,0.00,,,0.00,VWS V14.00,2013-02-22 05:20:00,
2013-02-22 00:25:00,21.2,15.4,29.26,East,94,5.4,8.3,78,0.00,,,0.00,VWS V14.00,2013-02-22 05:25:00,
2013-02-22 00:30:00,21.2,15.7,29.26,East,101,4.9,4.9,79,0.00,,,0.00,VWS V14.00,2013-02-22 05:30:00,
2013-02-22 00:35:00,21.2,15.7,29.23,SE,133,2.7,9.6,79,0.00,,,0.00,VWS V14.00,2013-02-22 05:35:00,
2013-02-22 00:40:00,21.2,15.7,29.23,ESE,102,3.6,9.6,79,0.00,,,0.00,VWS V14.00,2013-02-22 05:40:00,
2013-02-22 00:45:00,21.2,15.7,29.23,East,88,3.6,9.6,79,0.00,,,0.00,VWS V14.00,2013-02-22 05:45:00,
2013-02-22 00:50:00,21.2,15.7,29.23,SE,136,2.7,9.6,79,0.00,,,0.00,VWS V14.00,2013-02-22 05:50:00,
2013-02-22 00:55:00,21.2,15.7,29.23,SE,126,6.3,9.6,79,0.00,,,0.00,VWS V14.00,2013-02-22 05:55:00,
2013-02-22 01:00:00,21.4,15.9,29.23,East,101,4.9,4.9,79,0.00,,,0.00,VWS V14.00,2013-02-22 06:00:00,
2013-02-22 01:05:00,21.4,15.9,29.26,ESE,109,2.7,9.6,79,0.00,,,0.00,VWS V14.00,2013-02-22 06:05:00,
2013-02-22 01:12:00,21.4,15.9,29.26,ESE,119,6.3,8.3,79,0.00,,,0.00,VWS V14.00,2013-02-22 06:12:00,
2013-02-22 01:17:00,21.4,15.9,29.26,East,94,3.1,8.3,79,0.00,,,0.00,VWS V14.00,2013-02-22 06:17:00,
2013-02-22 01:22:00,21.4,15.9,29.26,ESE,103,3.1,8.3,79,0.00,,,0.00,VWS V14.00,2013-02-22 06:22:00,
2013-02-22 01:27:00,21.4,15.9,29.26,East,96,2.7,8.3,79,0.00,,,0.00,VWS V14.00,2013-02-22 06:27:00,
2013-02-22 01:32:00,21.6,16.1,29.26,East,81,5.4,5.8,79,0.00,,,0.00,VWS V14.00,2013-02-22 06:32:00,
2013-02-22 01:37:00,21.6,16.1,29.26,ESE,110,2.2,5.8,79,0.00,,,0.00,VWS V14.00,2013-02-22 06:37:00,
2013-02-22 01:42:00,21.6,16.1,29.26,ESE,123,5.8,8.3,79,0.00,,,0.00,VWS V14.00,2013-02-22 06:42:00,
2013-02-22 01:47:00,21.6,16.1,29.26,East,91,2.7,8.3,79,0.00,,,0.00,VWS V14.00,2013-02-22 06:47:00,
2013-02-22 01:52:00,21.6,16.1,29.23,East,88,5.8,8.3,79,0.00,,,0.00,VWS V14.00,2013-02-22 06:52:00,
2013-02-22 01:57:00,21.6,16.1,29.23,NE,43,5.8,8.3,79,0.00,,,0.00,VWS V14.00,2013-02-22 06:57:00,
2013-02-22 02:02:00,21.6,16.1,29.23,ESE,102,4.0,8.7,79,0.00,,,0.00,VWS V14.00,2013-02-22 07:02:00,
2013-02-22 02:07:00,21.6,16.1,29.23,ESE,118,4.9,11.0,79,0.00,,,0.00,VWS V14.00,2013-02-22 07:07:00,
2013-02-22 02:12:00,21.6,16.1,29.23,ESE,106,3.1,11.0,79,0.00,,,0.00,VWS V14.00,2013-02-22 07:12:00,
2013-02-22 02:17:00,21.6,16.1,29.23,ESE,112,5.8,11.0,79,0.00,,,0.00,VWS V14.00,2013-02-22 07:17:00,
2013-02-22 02:22:00,21.6,16.1,29.23,East,91,3.6,11.0,79,0.00,,,0.00,VWS V14.00,2013-02-22 07:22:00,
2013-02-22 02:27:00,21.6,16.1,29.23,SE,144,9.6,11.0,79,0.00,,,0.00,VWS V14.00,2013-02-22 07:27:00,
2013-02-22 02:32:00,21.6,16.1,29.23,ESE,102,5.8,9.6,79,0.00,,,0.00,VWS V14.00,2013-02-22 07:32:00,
2013-02-22 02:37:00,21.6,16.1,29.23,SE,146,5.4,10.5,79,0.00,,,0.00,VWS V14.00,2013-02-22 07:37:00,
2013-02-22 02:42:00,21.6,16.1,29.23,SE,126,3.6,10.5,79,0.00,,,0.00,VWS V14.00,2013-02-22 07:42:00,
2013-02-22 02:47:00,21.6,16.1,29.23,SE,124,7.6,10.5,79,0.00,,,0.00,VWS V14.00,2013-02-22 07:47:00,
2013-02-22 02:52:00,21.6,16.1,29.21,SE,126,5.8,10.5,79,0.00,,,0.00,VWS V14.00,2013-02-22 07:52:00,
2013-02-22 02:57:00,21.6,16.1,29.21,ESE,110,3.6,10.5,79,0.00,,,0.00,VWS V14.00,2013-02-22 07:57:00,
2013-02-22 03:02:00,21.6,16.1,29.21,East,94,5.8,6.3,79,0.00,,,0.00,VWS V14.00,2013-02-22 08:02:00,
2013-02-22 03:08:00,21.6,16.4,29.21,ESE,104,8.1,8.3,80,0.00,,,0.00,VWS V14.00,2013-02-22 08:08:00,
2013-02-22 03:13:00,21.4,15.9,29.21,ENE,59,4.9,10.5,79,0.00,,,0.00,VWS V14.00,2013-02-22 08:13:00,
2013-02-22 03:18:00,21.6,16.4,29.21,SE,146,7.2,10.5,80,0.00,,,0.00,VWS V14.00,2013-02-22 08:18:00,
2013-02-22 03:23:00,21.6,16.4,29.18,SE,139,6.3,10.5,80,0.00,,,0.00,VWS V14.00,2013-02-22 08:23:00,
2013-02-22 03:28:00,21.6,16.4,29.18,East,98,5.4,10.5,80,0.00,,,0.00,VWS V14.00,2013-02-22 08:28:00,
2013-02-22 03:33:00,21.6,16.4,29.18,East,79,8.1,8.3,80,0.00,,,0.00,VWS V14.00,2013-02-22 08:33:00,
2013-02-22 03:38:00,21.6,16.4,29.15,East,80,4.0,8.3,80,0.00,,,0.00,VWS V14.00,2013-02-22 08:38:00,
2013-02-22 03:43:00,21.4,16.2,29.15,SE,135,9.2,11.4,80,0.00,,,0.00,VWS V14.00,2013-02-22 08:43:00,
2013-02-22 03:48:00,21.4,16.2,29.15,East,95,6.3,11.4,80,0.00,,,0.00,VWS V14.00,2013-02-22 08:48:00,
2013-02-22 03:53:00,21.4,16.2,29.15,SE,124,8.3,11.4,80,0.00,,,0.00,VWS V14.00,2013-02-22 08:53:00,
2013-02-22 03:58:00,21.4,16.2,29.15,ESE,105,4.5,11.4,80,0.00,,,0.00,VWS V14.00,2013-02-22 08:58:00,
2013-02-22 04:03:00,21.4,16.2,29.15,ESE,104,3.6,8.7,80,0.00,,,0.00,VWS V14.00,2013-02-22 09:03:00,
2013-02-22 04:08:00,21.4,16.2,29.15,East,99,7.6,10.1,80,0.00,,,0.00,VWS V14.00,2013-02-22 09:08:00,
2013-02-22 04:13:00,21.4,16.2,29.15,NE,55,4.0,10.1,80,0.00,,,0.00,VWS V14.00,2013-02-22 09:13:00,
2013-02-22 04:18:00,21.4,16.2,29.15,ESE,108,2.7,10.1,80,0.00,,,0.00,VWS V14.00,2013-02-22 09:18:00,
2013-02-22 04:23:00,21.6,16.4,29.12,East,98,4.0,10.1,80,0.00,,,0.00,VWS V14.00,2013-02-22 09:23:00,
2013-02-22 04:28:00,21.4,16.2,29.12,ESE,105,3.6,10.1,80,0.00,,,0.00,VWS V14.00,2013-02-22 09:28:00,
2013-02-22 04:33:00,21.4,16.2,29.12,ESE,110,6.3,8.1,80,0.00,,,0.00,VWS V14.00,2013-02-22 09:33:00,
2013-02-22 04:38:00,21.6,16.4,29.12,ENE,61,4.9,15.4,80,0.00,,,0.00,VWS V14.00,2013-02-22 09:38:00,
2013-02-22 04:43:00,21.6,16.4,29.12,ESE,105,4.0,15.4,80,0.00,,,0.00,VWS V14.00,2013-02-22 09:43:00,
2013-02-22 04:48:00,21.6,16.4,29.12,ESE,104,3.6,15.4,80,0.00,,,0.00,VWS V14.00,2013-02-22 09:48:00,
2013-02-22 04:53:00,21.6,16.4,29.12,East,83,3.1,15.4,80,0.00,,,0.00,VWS V14.00,2013-02-22 09:53:00,
2013-02-22 04:58:00,21.6,16.4,29.12,ENE,70,5.8,15.4,80,0.00,,,0.00,VWS V14.00,2013-02-22 09:58:00,
2013-02-22 05:03:00,21.7,16.5,29.12,East,79,3.1,8.3,80,0.00,,,0.00,VWS V14.00,2013-02-22 10:03:00,
2013-02-22 05:08:00,21.7,16.5,29.09,East,93,2.7,8.3,80,0.00,,,0.00,VWS V14.00,2013-02-22 10:08:00,
2013-02-22 05:13:00,21.7,16.5,29.09,East,92,4.0,8.3,80,0.00,,,0.00,VWS V14.00,2013-02-22 10:13:00,
2013-02-22 05:18:00,21.9,16.7,29.09,ENE,76,6.3,10.1,80,0.00,,,0.00,VWS V14.00,2013-02-22 10:18:00,
2013-02-22 05:23:00,21.9,16.7,29.09,ESE,102,8.3,10.1,80,0.00,,,0.00,VWS V14.00,2013-02-22 10:23:00,
2013-02-22 05:28:00,21.9,16.7,29.09,ESE,116,2.7,10.1,80,0.00,,,0.00,VWS V14.00,2013-02-22 10:28:00,
2013-02-22 05:33:00,22.1,16.9,29.09,East,91,7.6,7.6,80,0.00,,,0.00,VWS V14.00,2013-02-22 10:33:00,
2013-02-22 05:38:00,22.1,16.9,29.09,SE,124,4.0,8.3,80,0.00,,,0.00,VWS V14.00,2013-02-22 10:38:00,
2013-02-22 05:43:00,22.3,17.1,29.09,East,100,5.8,11.0,80,0.00,,,0.00,VWS V14.00,2013-02-22 10:43:00,
2013-02-22 05:48:00,22.3,17.1,29.09,NNE,31,4.0,12.3,80,0.00,,,0.00,VWS V14.00,2013-02-22 10:48:00,
2013-02-22 05:53:00,22.5,17.2,29.12,SE,133,5.4,12.3,80,0.00,,,0.00,VWS V14.00,2013-02-22 10:53:00,
2013-02-22 05:58:00,22.5,16.9,29.12,ESE,112,4.9,12.3,79,0.00,,,0.00,VWS V14.00,2013-02-22 10:58:00,
2013-02-22 06:03:00,22.6,17.1,29.12,East,97,2.7,7.2,79,0.00,,,0.00,VWS V14.00,2013-02-22 11:03:00,
2013-02-22 06:08:00,22.6,17.1,29.12,NE,42,6.3,7.2,79,0.00,,,0.00,VWS V14.00,2013-02-22 11:08:00,
2013-02-22 06:13:00,22.6,17.1,29.12,NE,45,4.9,8.3,79,0.00,,,0.00,VWS V14.00,2013-02-22 11:13:00,
2013-02-22 06:18:00,22.8,17.3,29.06,ENE,65,3.6,9.2,79,0.00,,,0.00,VWS V14.00,2013-02-22 11:18:00,
2013-02-22 06:23:00,22.8,17.3,29.06,ENE,68,2.7,11.0,79,0.00,,,0.00,VWS V14.00,2013-02-22 11:23:00,
2013-02-22 06:28:00,22.8,17.3,29.06,ENE,68,3.6,11.0,79,0.00,,,0.00,VWS V14.00,2013-02-22 11:28:00,
2013-02-22 06:33:00,22.8,17.3,29.06,East,97,5.8,6.3,79,0.00,,,0.00,VWS V14.00,2013-02-22 11:33:00,
2013-02-22 06:38:00,22.8,17.3,29.03,SE,125,8.3,8.7,79,0.00,,,0.00,VWS V14.00,2013-02-22 11:38:00,
2013-02-22 06:43:00,22.8,17.3,29.03,ENE,73,7.6,10.5,79,0.00,,,0.00,VWS V14.00,2013-02-22 11:43:00,
2013-02-22 06:48:00,22.8,17.6,29.03,ESE,111,3.1,10.5,80,0.00,,,0.00,VWS V14.00,2013-02-22 11:48:00,
2013-02-22 06:53:00,22.8,17.6,29.03,ENE,64,4.9,10.5,80,0.00,,,0.00,VWS V14.00,2013-02-22 11:53:00,
2013-02-22 06:58:00,22.8,17.9,29.03,ESE,106,2.7,10.5,81,0.00,,,0.00,VWS V14.00,2013-02-22 11:58:00,
2013-02-22 07:03:00,22.8,17.9,29.06,ENE,77,3.1,6.3,81,0.00,,,0.00,VWS V14.00,2013-02-22 12:03:00,
2013-02-22 07:08:00,22.8,18.2,29.06,ESE,104,3.6,6.3,82,0.00,,,0.00,VWS V14.00,2013-02-22 12:08:00,
2013-02-22 07:13:00,22.6,18.0,29.06,SE,141,5.8,8.1,82,0.00,,,0.00,VWS V14.00,2013-02-22 12:13:00,
2013-02-22 07:18:00,22.6,18.5,29.03,ESE,114,2.7,8.1,84,0.00,,,0.00,VWS V14.00,2013-02-22 12:18:00,
2013-02-22 07:23:00,22.5,18.6,29.03,ESE,115,2.7,8.1,85,0.00,,,0.00,VWS V14.00,2013-02-22 12:23:00,
2013-02-22 07:28:00,22.5,19.2,29.03,ESE,115,4.0,8.1,87,0.00,,,0.00,VWS V14.00,2013-02-22 12:28:00,
2013-02-22 07:33:00,22.5,19.2,29.03,ESE,104,2.7,6.3,87,0.00,,,0.00,VWS V14.00,2013-02-22 12:33:00,
2013-02-22 07:38:00,22.5,19.5,29.03,NE,50,3.6,6.3,88,0.00,,,0.00,VWS V14.00,2013-02-22 12:38:00,
2013-02-22 07:43:00,22.5,19.7,29.03,ENE,75,3.1,6.3,89,0.00,,,0.00,VWS V14.00,2013-02-22 12:43:00,
2013-02-22 07:48:00,22.5,20.0,29.03,ESE,106,4.0,8.1,90,0.00,,,0.00,VWS V14.00,2013-02-22 12:48:00,
2013-02-22 07:53:00,22.5,20.0,29.03,East,91,3.6,8.1,90,0.00,,,0.00,VWS V14.00,2013-02-22 12:53:00,
2013-02-22 07:58:00,22.5,20.0,29.03,East,93,5.4,8.7,90,0.00,,,0.00,VWS V14.00,2013-02-22 12:58:00,
2013-02-22 08:03:00,22.6,20.1,29.00,ENE,67,5.4,8.7,90,0.00,,,0.00,VWS V14.00,2013-02-22 13:03:00,
2013-02-22 08:08:00,22.8,20.3,29.00,East,82,2.7,8.7,90,0.00,,,0.00,VWS V14.00,2013-02-22 13:08:00,
2013-02-22 08:13:00,22.6,20.4,29.00,ESE,116,2.7,8.7,91,0.00,,,0.00,VWS V14.00,2013-02-22 13:13:00,
2013-02-22 08:18:00,22.8,20.6,29.03,ESE,105,4.0,8.7,91,0.00,,,0.00,VWS V14.00,2013-02-22 13:18:00,
2013-02-22 08:23:00,22.8,20.6,29.03,East,98,0.0,8.7,91,0.00,,,0.00,VWS V14.00,2013-02-22 13:23:00,
2013-02-22 08:28:00,22.8,20.6,29.03,SE,140,4.9,8.7,91,0.00,,,0.00,VWS V14.00,2013-02-22 13:28:00,
2013-02-22 08:33:00,23.0,20.8,29.00,SE,139,3.1,8.3,91,0.00,,,0.00,VWS V14.00,2013-02-22 13:33:00,
2013-02-22 08:38:00,22.8,20.6,29.00,ESE,105,5.8,8.7,91,0.00,,,0.00,VWS V14.00,2013-02-22 13:38:00,
2013-02-22 08:43:00,22.8,20.6,29.00,ENE,71,4.5,8.7,91,0.00,,,0.00,VWS V14.00,2013-02-22 13:43:00,
2013-02-22 08:48:00,22.8,20.3,29.00,ENE,62,5.8,8.7,90,0.00,,,0.00,VWS V14.00,2013-02-22 13:48:00,
2013-02-22 08:53:00,22.8,20.3,29.00,ESE,114,4.0,8.7,90,0.00,,,0.00,VWS V14.00,2013-02-22 13:53:00,
2013-02-22 08:58:00,23.0,20.8,29.00,East,86,9.6,10.5,91,0.00,,,0.00,VWS V14.00,2013-02-22 13:58:00,
2013-02-22 09:03:00,23.0,20.8,29.00,ESE,102,5.8,8.7,91,0.00,,,0.00,VWS V14.00,2013-02-22 14:03:00,
2013-02-22 09:08:00,23.2,20.7,29.00,SE,128,5.4,9.6,90,0.00,,,0.00,VWS V14.00,2013-02-22 14:08:00,
2013-02-22 09:13:00,23.4,20.9,29.00,SE,142,3.6,9.6,90,0.00,,,0.00,VWS V14.00,2013-02-22 14:13:00,
2013-02-22 09:18:00,23.5,21.0,29.00,ESE,113,5.4,10.5,90,0.00,,,0.00,VWS V14.00,2013-02-22 14:18:00,
2013-02-22 09:24:00,23.5,21.0,29.00,SSE,152,8.1,10.5,90,0.00,,,0.00,VWS V14.00,2013-02-22 14:24:00,
2013-02-22 09:29:00,23.4,20.9,29.00,ENE,64,3.1,10.5,90,0.00,,,0.00,VWS V14.00,2013-02-22 14:29:00,
2013-02-22 09:34:00,23.4,20.6,29.00,ESE,111,3.1,7.6,89,0.00,,,0.00,VWS V14.00,2013-02-22 14:34:00,
2013-02-22 09:39:00,23.5,20.8,29.00,SE,133,7.2,9.6,89,0.00,,,0.00,VWS V14.00,2013-02-22 14:39:00,
2013-02-22 09:44:00,23.7,21.0,29.00,East,92,5.4,9.6,89,0.00,,,0.00,VWS V14.00,2013-02-22 14:44:00,
2013-02-22 09:49:00,24.1,21.3,29.00,ESE,107,4.0,12.3,89,0.00,,,0.00,VWS V14.00,2013-02-22 14:49:00,
2013-02-22 09:54:00,24.6,21.9,29.00,SE,143,5.8,12.3,89,0.00,,,0.00,VWS V14.00,2013-02-22 14:54:00,
2013-02-22 09:59:00,24.8,21.8,29.00,ESE,107,11.0,12.3,88,0.00,,,0.00,VWS V14.00,2013-02-22 14:59:00,
2013-02-22 10:04:00,25.5,22.2,28.97,ESE,110,4.0,10.5,87,0.00,,,0.00,VWS V14.00,2013-02-22 15:04:00,
2013-02-22 10:09:00,25.9,22.3,28.97,SE,136,8.1,10.5,86,0.00,,,0.00,VWS V14.00,2013-02-22 15:09:00,
2013-02-22 10:14:00,25.7,21.5,28.97,ENE,78,4.0,10.5,84,0.00,,,0.00,VWS V14.00,2013-02-22 15:14:00,
2013-02-22 10:19:00,25.9,21.4,28.97,SE,131,4.0,10.5,83,0.00,,,0.00,VWS V14.00,2013-02-22 15:19:00,
2013-02-22 10:24:00,26.1,21.6,28.97,SE,126,7.2,10.5,83,0.00,,,0.00,VWS V14.00,2013-02-22 15:24:00,
2013-02-22 10:29:00,26.2,21.8,28.97,ESE,120,6.7,10.5,83,0.00,,,0.00,VWS V14.00,2013-02-22 15:29:00,
2013-02-22 10:34:00,26.4,21.7,28.97,ESE,104,5.8,8.3,82,0.00,,,0.00,VWS V14.00,2013-02-22 15:34:00,
2013-02-22 10:39:00,26.6,21.6,28.97,East,79,5.8,9.2,81,0.00,,,0.00,VWS V14.00,2013-02-22 15:39:00,
2013-02-22 10:44:00,26.8,21.7,28.97,East,95,2.7,9.2,81,0.00,,,0.00,VWS V14.00,2013-02-22 15:44:00,
2013-02-22 10:49:00,27.0,21.6,28.97,ESE,114,5.8,9.2,80,0.00,,,0.00,VWS V14.00,2013-02-22 15:49:00,
2013-02-22 10:54:00,27.1,21.8,28.97,ESE,110,5.4,9.2,80,0.00,,,0.00,VWS V14.00,2013-02-22 15:54:00,
2013-02-22 10:59:00,27.1,21.8,28.97,East,99,7.6,9.2,80,0.00,,,0.00,VWS V14.00,2013-02-22 15:59:00,
2013-02-22 11:04:00,27.1,21.5,28.97,SE,139,2.2,8.1,79,0.00,,,0.00,VWS V14.00,2013-02-22 16:04:00,
2013-02-22 11:09:00,27.1,21.5,28.97,ESE,119,6.3,12.8,79,0.00,,,0.00,VWS V14.00,2013-02-22 16:09:00,
2013-02-22 11:14:00,27.3,21.7,28.97,ESE,118,8.3,12.8,79,0.00,,,0.00,VWS V14.00,2013-02-22 16:14:00,
2013-02-22 11:19:00,27.3,21.7,28.97,SE,133,6.3,12.8,79,0.00,,,0.00,VWS V14.00,2013-02-22 16:19:00,
2013-02-22 11:24:00,27.1,21.2,28.97,SSE,149,8.1,12.8,78,0.00,,,0.00,VWS V14.00,2013-02-22 16:24:00,
2013-02-22 11:29:00,27.0,21.0,28.97,ESE,112,4.0,12.8,78,0.00,,,0.00,VWS V14.00,2013-02-22 16:29:00,
2013-02-22 11:34:00,27.3,21.7,28.97,ESE,110,4.0,8.3,79,0.00,,,0.00,VWS V14.00,2013-02-22 16:34:00,
2013-02-22 11:39:00,27.1,21.5,28.97,SE,131,8.7,8.7,79,0.00,,,0.00,VWS V14.00,2013-02-22 16:39:00,
2013-02-22 11:44:00,27.1,21.5,28.97,ESE,115,5.4,10.1,79,0.00,,,0.00,VWS V14.00,2013-02-22 16:44:00,
2013-02-22 11:49:00,27.1,21.5,28.94,SE,125,3.6,10.1,79,0.00,,,0.00,VWS V14.00,2013-02-22 16:49:00,
2013-02-22 11:54:00,27.5,21.9,28.94,ESE,109,0.0,10.1,79,0.00,,,0.00,VWS V14.00,2013-02-22 16:54:00,
2013-02-22 11:59:00,27.5,21.9,28.94,SSE,150,6.3,10.1,79,0.00,,,0.00,VWS V14.00,2013-02-22 16:59:00,
2013-02-22 12:04:00,27.7,22.0,28.94,East,89,3.1,8.7,79,0.00,,,0.00,VWS V14.00,2013-02-22 17:04:00,
2013-02-22 12:09:00,27.9,22.2,28.94,ESE,118,7.6,9.6,79,0.00,,,0.00,VWS V14.00,2013-02-22 17:09:00,
2013-02-22 12:14:00,28.0,22.4,28.94,ESE,121,3.6,9.6,79,0.00,,,0.00,VWS V14.00,2013-02-22 17:14:00,
2013-02-22 12:19:00,28.4,22.7,28.94,NNE,30,2.2,9.6,79,0.00,,,0.00,VWS V14.00,2013-02-22 17:19:00,
2013-02-22 12:24:00,28.6,22.6,28.94,SE,127,4.9,9.6,78,0.00,,,0.00,VWS V14.00,2013-02-22 17:24:00,
2013-02-22 12:29:00,28.6,22.6,28.94,SE,127,4.9,10.1,78,0.00,,,0.00,VWS V14.00,2013-02-22 17:29:00,
2013-02-22 12:34:00,28.6,22.6,28.94,SE,140,5.4,8.3,78,0.00,,,0.00,VWS V14.00,2013-02-22 17:34:00,
2013-02-22 12:39:00,28.6,22.9,28.94,East,97,3.6,10.1,79,0.00,,,0.00,VWS V14.00,2013-02-22 17:39:00,
2013-02-22 12:44:00,28.8,23.1,28.94,SSE,149,4.9,10.1,79,0.00,,,0.00,VWS V14.00,2013-02-22 17:44:00,
2013-02-22 12:49:00,28.6,22.9,28.94,ESE,113,6.3,10.1,79,0.00,,,0.00,VWS V14.00,2013-02-22 17:49:00,
2013-02-22 12:54:00,28.6,22.9,28.94,ESE,115,3.1,10.1,79,0.00,,,0.00,VWS V14.00,2013-02-22 17:54:00,
2013-02-22 12:59:00,28.8,23.4,28.94,ESE,120,3.6,10.1,80,0.00,,,0.00,VWS V14.00,2013-02-22 17:59:00,
2013-02-22 13:04:00,28.8,23.4,28.94,SE,137,2.7,10.5,80,0.00,,,0.00,VWS V14.00,2013-02-22 18:04:00,
2013-02-22 13:09:00,28.9,23.6,28.94,ESE,104,2.7,10.5,80,0.00,,,0.00,VWS V14.00,2013-02-22 18:09:00,
2013-02-22 13:14:00,28.9,23.9,28.94,SSE,160,6.3,10.5,81,0.00,,,0.00,VWS V14.00,2013-02-22 18:14:00,
2013-02-22 13:19:00,29.3,24.2,28.91,SE,124,2.7,10.5,81,0.00,,,0.00,VWS V14.00,2013-02-22 18:19:00,
2013-02-22 13:24:00,29.1,24.0,28.91,ESE,120,3.1,10.5,81,0.00,,,0.00,VWS V14.00,2013-02-22 18:24:00,
2013-02-22 13:29:00,29.3,24.5,28.91,ESE,117,4.0,10.5,82,0.00,,,0.00,VWS V14.00,2013-02-22 18:29:00,
2013-02-22 13:34:00,29.1,24.3,28.91,SE,135,4.0,6.3,82,0.00,,,0.00,VWS V14.00,2013-02-22 18:34:00,
2013-02-22 13:39:00,29.1,24.6,28.91,SE,124,3.6,6.3,83,0.00,,,0.00,VWS V14.00,2013-02-22 18:39:00,
2013-02-22 13:44:00,29.3,24.8,28.91,SE,132,3.1,8.1,83,0.00,,,0.00,VWS V14.00,2013-02-22 18:44:00,
2013-02-22 13:49:00,29.1,24.6,28.91,SSE,160,4.9,8.1,83,0.00,,,0.00,VWS V14.00,2013-02-22 18:49:00,
2013-02-22 13:54:00,29.1,24.9,28.91,ESE,122,5.4,8.3,84,0.00,,,0.00,VWS V14.00,2013-02-22 18:54:00,
2013-02-22 13:59:00,29.1,24.9,28.91,SE,129,5.4,8.3,84,0.00,,,0.00,VWS V14.00,2013-02-22 18:59:00,
2013-02-22 14:04:00,29.1,25.2,28.91,ESE,107,5.4,6.3,85,0.00,,,0.00,VWS V14.00,2013-02-22 19:04:00,
2013-02-22 14:09:00,29.1,25.2,28.91,SSE,150,3.6,7.2,85,0.00,,,0.00,VWS V14.00,2013-02-22 19:09:00,
2013-02-22 14:14:00,29.3,25.6,28.91,South,169,0.0,7.2,86,0.00,,,0.00,VWS V14.00,2013-02-22 19:14:00,
2013-02-22 14:19:00,29.5,25.8,28.91,SSE,155,3.1,7.2,86,0.00,,,0.00,VWS V14.00,2013-02-22 19:19:00,
2013-02-22 14:24:00,29.5,26.1,28.91,SSE,161,6.3,7.2,87,0.00,,,0.00,VWS V14.00,2013-02-22 19:24:00,
2013-02-22 14:29:00,29.5,26.1,28.91,SE,143,5.8,7.2,87,0.00,,,0.00,VWS V14.00,2013-02-22 19:29:00,
2013-02-22 14:34:00,29.5,26.1,28.91,SE,126,5.4,6.3,87,0.00,,,0.00,VWS V14.00,2013-02-22 19:34:00,
2013-02-22 14:39:00,29.7,26.3,28.91,SE,124,5.4,6.3,87,0.00,,,0.00,VWS V14.00,2013-02-22 19:39:00,
2013-02-22 14:44:00,29.7,26.5,28.91,ESE,114,5.8,8.3,88,0.00,,,0.00,VWS V14.00,2013-02-22 19:44:00,
2013-02-22 14:49:00,29.8,26.7,28.91,SSE,158,3.6,8.3,88,0.00,,,0.00,VWS V14.00,2013-02-22 19:49:00,
2013-02-22 14:54:00,30.0,26.9,28.91,ESE,118,4.5,8.3,88,0.00,,,0.00,VWS V14.00,2013-02-22 19:54:00,
2013-02-22 14:59:00,30.0,26.9,28.91,South,175,5.4,8.3,88,0.00,,,0.00,VWS V14.00,2013-02-22 19:59:00,
2013-02-22 15:04:00,30.0,27.2,28.91,SE,146,7.6,7.6,89,0.00,,,0.00,VWS V14.00,2013-02-22 20:04:00,
2013-02-22 15:09:00,30.0,27.2,28.91,ESE,123,4.0,7.6,89,0.00,,,0.00,VWS V14.00,2013-02-22 20:09:00,
2013-02-22 15:14:00,30.2,27.4,28.91,ESE,118,2.2,7.6,89,0.00,,,0.00,VWS V14.00,2013-02-22 20:14:00,
2013-02-22 15:19:00,30.4,27.5,28.91,SE,127,5.8,7.6,89,0.00,,,0.00,VWS V14.00,2013-02-22 20:19:00,
2013-02-22 15:24:00,30.2,27.4,28.91,South,175,0.0,7.6,89,0.00,,,0.00,VWS V14.00,2013-02-22 20:24:00,
2013-02-22 15:29:00,30.4,27.5,28.91,South,182,0.0,7.6,89,0.00,,,0.00,VWS V14.00,2013-02-22 20:29:00,
2013-02-22 15:34:00,30.2,27.4,28.91,SSE,164,3.6,6.3,89,0.00,,,0.00,VWS V14.00,2013-02-22 20:34:00,
2013-02-22 15:39:00,30.4,27.5,28.91,ESE,123,4.0,6.3,89,0.00,,,0.00,VWS V14.00,2013-02-22 20:39:00,
2013-02-22 15:44:00,30.4,27.5,28.91,SE,129,2.2,6.3,89,0.00,,,0.00,VWS V14.00,2013-02-22 20:44:00,
2013-02-22 15:49:00,30.4,27.5,28.91,SE,136,0.0,6.3,89,0.00,,,0.00,VWS V14.00,2013-02-22 20:49:00,
2013-02-22 15:54:00,30.4,27.5,28.91,ESE,121,4.0,6.3,89,0.00,,,0.00,VWS V14.00,2013-02-22 20:54:00,
2013-02-22 15:59:00,30.4,27.8,28.91,SE,125,3.1,6.3,90,0.00,,,0.00,VWS V14.00,2013-02-22 20:59:00,
2013-02-22 16:04:00,30.4,27.8,28.91,SE,141,3.1,4.0,90,0.00,,,0.00,VWS V14.00,2013-02-22 21:04:00,
2013-02-22 16:09:00,30.4,27.8,28.91,SE,136,2.7,5.8,90,0.00,,,0.00,VWS V14.00,2013-02-22 21:09:00,
2013-02-22 16:14:00,30.6,28.2,28.91,South,177,3.6,5.8,91,0.00,,,0.00,VWS V14.00,2013-02-22 21:14:00,
2013-02-22 16:20:00,30.6,28.2,28.91,ESE,121,2.7,5.8,91,0.00,,,0.00,VWS V14.00,2013-02-22 21:20:00,
2013-02-22 16:24:00,30.6,28.2,28.91,ESE,123,3.6,5.8,91,0.00,,,0.00,VWS V14.00,2013-02-22 21:24:00,
2013-02-22 16:29:00,30.6,28.2,28.91,SE,141,3.6,5.8,91,0.00,,,0.00,VWS V14.00,2013-02-22 21:29:00,
2013-02-22 16:35:00,30.6,28.5,28.88,SSW,202,0.0,3.6,92,0.00,,,0.00,VWS V14.00,2013-02-22 21:35:00,
2013-02-22 16:40:00,30.6,28.5,28.88,SE,145,2.7,6.7,92,0.00,,,0.00,VWS V14.00,2013-02-22 21:40:00,
2013-02-22 16:45:00,30.6,28.8,28.88,SE,128,3.1,6.7,93,0.00,,,0.00,VWS V14.00,2013-02-22 21:45:00,
2013-02-22 16:50:00,30.6,28.8,28.91,ESE,123,2.7,6.7,93,0.00,,,0.00,VWS V14.00,2013-02-22 21:50:00,
2013-02-22 16:55:00,30.6,28.8,28.91,SSW,193,4.0,6.7,93,0.00,,,0.00,VWS V14.00,2013-02-22 21:55:00,
2013-02-22 17:00:00,30.6,29.0,28.91,South,184,4.0,6.7,94,0.00,,,0.00,VWS V14.00,2013-02-22 22:00:00,
2013-02-22 17:05:00,30.6,29.0,28.91,SSE,162,2.7,4.0,94,0.00,,,0.00,VWS V14.00,2013-02-22 22:05:00,
2013-02-22 17:10:00,30.6,29.0,28.91,SSE,155,4.5,4.9,94,0.00,,,0.00,VWS V14.00,2013-02-22 22:10:00,
2013-02-22 17:15:00,30.6,29.0,28.91,SSE,156,0.0,4.9,94,0.00,,,0.00,VWS V14.00,2013-02-22 22:15:00,
2013-02-22 17:20:00,30.4,29.1,28.91,SSE,151,2.7,5.4,95,0.00,,,0.00,VWS V14.00,2013-02-22 22:20:00,
2013-02-22 17:25:00,30.4,29.1,28.91,South,176,2.7,5.4,95,0.00,,,0.00,VWS V14.00,2013-02-22 22:25:00,
2013-02-22 17:30:00,30.4,29.1,28.91,SSE,153,0.0,5.4,95,0.00,,,0.00,VWS V14.00,2013-02-22 22:30:00,
2013-02-22 17:35:00,30.4,29.1,28.91,SSW,195,4.9,5.4,95,0.00,,,0.00,VWS V14.00,2013-02-22 22:35:00,
2013-02-22 17:40:00,30.4,29.4,28.91,SE,145,3.6,5.8,96,0.00,,,0.00,VWS V14.00,2013-02-22 22:40:00,
2013-02-22 17:45:00,30.2,29.2,28.91,South,184,4.0,5.8,96,0.00,,,0.00,VWS V14.00,2013-02-22 22:45:00,
2013-02-22 17:50:00,30.2,29.5,28.91,South,175,0.0,5.8,97,0.00,,,0.00,VWS V14.00,2013-02-22 22:50:00,
2013-02-22 17:55:00,30.2,29.5,28.91,SSE,162,2.7,5.8,97,0.00,,,0.00,VWS V14.00,2013-02-22 22:55:00,
2013-02-22 18:00:00,30.4,29.6,28.91,SSE,166,4.0,4.0,97,0.00,,,0.00,VWS V14.00,2013-02-22 23:00:00,
2013-02-22 18:05:00,30.4,29.6,28.91,SSW,193,2.7,4.5,97,0.00,,,0.00,VWS V14.00,2013-02-22 23:05:00,
2013-02-22 18:10:00,30.4,29.6,28.91,SSE,163,2.7,6.3,97,0.00,,,0.00,VWS V14.00,2013-02-22 23:10:00,
2013-02-22 18:15:00,30.4,29.9,28.91,South,186,2.7,6.3,98,0.00,,,0.00,VWS V14.00,2013-02-22 23:15:00,
2013-02-22 18:20:00,30.4,29.9,28.91,SW,228,4.0,6.3,98,0.00,,,0.00,VWS V14.00,2013-02-22 23:20:00,
2013-02-22 18:25:00,30.4,29.9,28.91,SSE,153,2.2,6.3,98,0.00,,,0.00,VWS V14.00,2013-02-22 23:25:00,
2013-02-22 18:30:00,30.4,29.9,28.91,SW,216,2.2,4.0,98,0.00,,,0.00,VWS V14.00,2013-02-22 23:30:00,
2013-02-22 18:35:00,30.6,30.1,28.91,SSE,158,2.7,5.8,98,0.00,,,0.00,VWS V14.00,2013-02-22 23:35:00,
2013-02-22 18:40:00,30.6,30.1,28.91,SSW,202,3.6,5.8,98,0.00,,,0.00,VWS V14.00,2013-02-22 23:40:00,
2013-02-22 18:45:00,30.6,30.1,28.91,South,170,3.6,6.3,98,0.00,,,0.00,VWS V14.00,2013-02-22 23:45:00,
2013-02-22 18:50:00,30.6,30.1,28.91,SSE,167,3.6,6.3,98,0.00,,,0.00,VWS V14.00,2013-02-22 23:50:00,
2013-02-22 18:55:00,30.6,30.1,28.91,South,172,2.7,6.3,98,0.00,,,0.00,VWS V14.00,2013-02-22 23:55:00,
2013-02-22 19:00:00,30.6,30.1,28.91,SSW,197,2.7,2.7,98,0.00,,,0.00,VWS V14.00,2013-02-23 00:00:00,
2013-02-22 19:05:00,30.7,30.2,28.91,SSW,211,2.2,4.9,98,0.00,,,0.00,VWS V14.00,2013-02-23 00:05:00,
2013-02-22 19:10:00,30.7,30.2,28.91,SSE,162,0.0,6.3,98,0.00,,,0.00,VWS V14.00,2013-02-23 00:10:00,
2013-02-22 19:15:00,30.7,30.2,28.91,SSW,203,2.2,6.3,98,0.00,,,0.00,VWS V14.00,2013-02-23 00:15:00,
2013-02-22 19:20:00,30.9,30.4,28.94,South,180,3.6,6.3,98,0.00,,,0.00,VWS V14.00,2013-02-23 00:20:00,
2013-02-22 19:25:00,30.9,30.4,28.94,South,172,2.2,6.3,98,0.00,,,0.00,VWS V14.00,2013-02-23 00:25:00,
2013-02-22 19:30:00,30.9,30.4,28.94,South,169,3.1,3.1,98,0.00,,,0.00,VWS V14.00,2013-02-23 00:30:00,
2013-02-22 19:35:00,31.1,30.6,28.94,South,172,3.6,5.8,98,0.00,,,0.00,VWS V14.00,2013-02-23 00:35:00,
2013-02-22 19:40:00,31.1,30.6,28.94,South,189,3.1,5.8,98,0.00,,,0.00,VWS V14.00,2013-02-23 00:40:00,
2013-02-22 19:45:00,31.1,30.6,28.94,SW,221,0.0,5.8,98,0.00,,,0.00,VWS V14.00,2013-02-23 00:45:00,
2013-02-22 19:50:00,31.1,30.6,28.91,SSW,213,3.1,5.8,98,0.00,,,0.00,VWS V14.00,2013-02-23 00:50:00,
2013-02-22 19:55:00,31.3,30.8,28.91,South,178,0.0,6.7,98,0.00,,,0.00,VWS V14.00,2013-02-23 00:55:00,
2013-02-22 20:00:00,31.5,31.0,28.91,SSW,199,4.0,4.9,98,0.00,,,0.00,VWS V14.00,2013-02-23 01:00:00,
2013-02-22 20:05:00,31.6,31.1,28.91,South,184,4.0,7.6,98,0.00,,,0.00,VWS V14.00,2013-02-23 01:05:00,
2013-02-22 20:10:00,31.6,31.1,28.91,SSE,160,6.3,7.6,98,0.00,,,0.00,VWS V14.00,2013-02-23 01:10:00,
2013-02-22 20:15:00,31.8,31.3,28.91,South,172,4.9,7.6,98,0.00,,,0.00,VWS V14.00,2013-02-23 01:15:00,
2013-02-22 20:20:00,31.8,31.3,28.91,SSW,192,3.1,7.6,98,0.00,,,0.00,VWS V14.00,2013-02-23 01:20:00,
2013-02-22 20:25:00,31.8,31.3,28.91,SSW,197,4.9,7.6,98,0.00,,,0.00,VWS V14.00,2013-02-23 01:25:00,
2013-02-22 20:30:00,32.0,31.5,28.91,SSW,211,5.4,6.3,98,0.00,,,0.00,VWS V14.00,2013-02-23 01:30:00,
2013-02-22 20:35:00,32.0,31.5,28.91,South,180,4.0,7.6,98,0.00,,,0.00,VWS V14.00,2013-02-23 01:35:00,
2013-02-22 20:40:00,32.2,31.7,28.91,SW,236,3.1,7.6,98,0.00,,,0.00,VWS V14.00,2013-02-23 01:40:00,
2013-02-22 20:45:00,32.2,31.7,28.91,SW,229,3.1,7.6,98,0.00,,,0.00,VWS V14.00,2013-02-23 01:45:00,
2013-02-22 20:50:00,32.2,31.7,28.91,South,176,5.4,7.6,98,0.00,,,0.00,VWS V14.00,2013-02-23 01:50:00,
2013-02-22 20:55:00,32.4,31.9,28.91,WSW,243,3.1,7.6,98,0.00,,,0.00,VWS V14.00,2013-02-23 01:55:00,
2013-02-22 21:00:00,32.4,31.9,28.91,SW,214,4.0,4.0,98,0.00,,,0.00,VWS V14.00,2013-02-23 02:00:00,
2013-02-22 21:05:00,32.4,31.9,28.91,SSW,204,2.2,5.8,98,0.00,,,0.00,VWS V14.00,2013-02-23 02:05:00,
2013-02-22 21:10:00,32.4,31.9,28.91,South,186,3.6,5.8,98,0.00,,,0.00,VWS V14.00,2013-02-23 02:10:00,
2013-02-22 21:15:00,32.4,31.9,28.91,SW,229,3.1,6.3,98,0.00,,,0.00,VWS V14.00,2013-02-23 02:15:00,
2013-02-22 21:20:00,32.4,31.9,28.91,SSW,203,5.4,6.3,98,0.00,,,0.00,VWS V14.00,2013-02-23 02:20:00,
2013-02-22 21:25:00,32.4,31.9,28.91,SSW,207,4.0,6.3,98,0.00,,,0.00,VWS V14.00,2013-02-23 02:25:00,
2013-02-22 21:30:00,32.4,31.9,28.91,SSW,207,3.1,4.0,98,0.00,,,0.00,VWS V14.00,2013-02-23 02:30:00,
2013-02-22 21:36:00,32.4,31.9,28.91,SSW,212,7.2,7.2,98,0.00,,,0.00,VWS V14.00,2013-02-23 02:36:00,
2013-02-22 21:41:00,32.4,31.9,28.91,SSE,162,2.2,7.2,98,0.00,,,0.00,VWS V14.00,2013-02-23 02:41:00,
2013-02-22 21:46:00,32.5,32.0,28.91,SSW,196,6.3,7.2,98,0.00,,,0.00,VWS V14.00,2013-02-23 02:46:00,
2013-02-22 21:51:00,32.5,32.0,28.91,SW,227,4.9,7.2,98,0.00,,,0.00,VWS V14.00,2013-02-23 02:51:00,
2013-02-22 21:56:00,32.5,32.0,28.91,SSW,208,4.0,7.2,98,0.00,,,0.00,VWS V14.00,2013-02-23 02:56:00,
2013-02-22 22:01:00,32.5,32.0,28.91,South,179,2.7,2.7,98,0.00,,,0.00,VWS V14.00,2013-02-23 03:01:00,
2013-02-22 22:06:00,32.5,32.0,28.91,WSW,240,3.6,6.3,98,0.00,,,0.00,VWS V14.00,2013-02-23 03:06:00,
2013-02-22 22:10:00,32.5,32.0,28.91,South,175,5.4,7.6,98,0.00,,,0.00,VWS V14.00,2013-02-23 03:10:00,
2013-02-22 22:15:00,32.5,32.0,28.91,SSW,193,6.3,7.6,98,0.00,,,0.00,VWS V14.00,2013-02-23 03:15:00,
2013-02-22 22:20:00,32.5,32.0,28.91,SSE,159,4.0,7.6,98,0.00,,,0.00,VWS V14.00,2013-02-23 03:20:00,
2013-02-22 22:25:00,32.7,32.2,28.91,SSW,207,3.6,8.7,98,0.00,,,0.00,VWS V14.00,2013-02-23 03:25:00,
2013-02-22 22:30:00,32.7,32.2,28.91,SSW,194,4.9,5.4,98,0.00,,,0.00,VWS V14.00,2013-02-23 03:30:00,
2013-02-22 22:36:00,32.5,32.0,28.91,SSW,202,2.2,8.7,98,0.00,,,0.00,VWS V14.00,2013-02-23 03:36:00,
2013-02-22 22:41:00,32.5,32.0,28.91,WSW,241,6.3,8.7,98,0.00,,,0.00,VWS V14.00,2013-02-23 03:41:00,
2013-02-22 22:46:00,32.5,32.0,28.91,South,177,0.0,8.7,98,0.00,,,0.00,VWS V14.00,2013-02-23 03:46:00,
2013-02-22 22:51:00,32.4,31.9,28.91,SSW,213,4.0,8.7,98,0.00,,,0.00,VWS V14.00,2013-02-23 03:51:00,
2013-02-22 22:56:00,32.4,31.9,28.91,SW,214,4.9,8.7,98,0.00,,,0.00,VWS V14.00,2013-02-23 03:56:00,
2013-02-22 23:01:00,32.4,31.9,28.91,SSW,213,2.2,5.4,98,0.00,,,0.00,VWS V14.00,2013-02-23 04:01:00,
2013-02-22 23:06:00,32.2,31.7,28.91,SW,222,2.7,5.4,98,0.00,,,0.00,VWS V14.00,2013-02-23 04:06:00,
2013-02-22 23:11:00,32.2,31.7,28.91,SSW,202,4.0,6.3,98,0.00,,,0.00,VWS V14.00,2013-02-23 04:11:00,
2013-02-22 23:16:00,32.2,31.4,28.91,South,186,3.6,6.3,97,0.00,,,0.00,VWS V14.00,2013-02-23 04:16:00,
2013-02-22 23:21:00,32.2,31.4,28.91,South,175,2.7,6.3,97,0.00,,,0.00,VWS V14.00,2013-02-23 04:21:00,
2013-02-22 23:26:00,32.0,31.0,28.91,SW,214,0.0,6.3,96,0.00,,,0.00,VWS V14.00,2013-02-23 04:26:00,
2013-02-22 23:31:00,32.0,31.0,28.91,SSE,149,0.0,4.9,96,0.00,,,0.00,VWS V14.00,2013-02-23 04:31:00,
2013-02-22 23:36:00,32.0,31.0,28.91,SSW,198,4.9,7.6,96,0.00,,,0.00,VWS V14.00,2013-02-23 04:36:00,
2013-02-22 23:41:00,32.0,30.7,28.91,SW,228,2.7,7.6,95,0.00,,,0.00,VWS V14.00,2013-02-23 04:41:00,
2013-02-22 23:46:00,32.0,30.7,28.91,SSW,193,3.1,7.6,95,0.00,,,0.00,VWS V14.00,2013-02-23 04:46:00,
2013-02-22 23:51:00,31.8,30.3,28.91,South,183,4.9,7.6,94,0.00,,,0.00,VWS V14.00,2013-02-23 04:51:00,
2013-02-22 23:56:00,31.6,30.1,28.91,South,191,2.7,7.6,94,0.00,,,0.00,VWS V14.00,2013-02-23 04:56:00,